sensor_id;sensor_type;location;lat;lon;timestamp;P1;durP1;ratioP1;P2;durP2;ratioP2
13708;SDS011;54933;51.908;7.730;2023-06-26T00:02:23;2.40;;;2.20;;
13708;SDS011;54933;51.908;7.730;2023-06-26T00:04:48;2.50;;;2.30;;
13708;SDS011;54933;51.908;7.730;2023-06-26T00:07:13;3.10;;;2.17;;
13708;SDS011;54933;51.908;7.730;2023-06-26T00:09:38;2.20;;;2.10;;
13708;SDS011;54933;51.908;7.730;2023-06-26T00:12:04;3.00;;;2.30;;
13708;SDS011;54933;51.908;7.730;2023-06-26T00:14:30;2.63;;;2.43;;
13708;SDS011;54933;51.908;7.730;2023-06-26T00:16:55;2.30;;;2.10;;
13708;SDS011;54933;51.908;7.730;2023-06-26T00:19:20;2.50;;;2.40;;
13708;SDS011;54933;51.908;7.730;2023-06-26T00:21:46;2.83;;;2.63;;
13708;SDS011;54933;51.908;7.730;2023-06-26T00:24:11;2.20;;;2.00;;
13708;SDS011;54933;51.908;7.730;2023-06-26T00:26:37;2.23;;;2.13;;
13708;SDS011;54933;51.908;7.730;2023-06-26T00:29:02;3.50;;;2.13;;
13708;SDS011;54933;51.908;7.730;2023-06-26T00:31:28;2.17;;;1.97;;
13708;SDS011;54933;51.908;7.730;2023-06-26T00:33:53;2.30;;;2.20;;
13708;SDS011;54933;51.908;7.730;2023-06-26T00:36:18;2.40;;;2.20;;
13708;SDS011;54933;51.908;7.730;2023-06-26T00:38:43;2.57;;;2.00;;
13708;SDS011;54933;51.908;7.730;2023-06-26T00:41:09;2.10;;;2.00;;
13708;SDS011;54933;51.908;7.730;2023-06-26T00:43:37;2.70;;;2.50;;
13708;SDS011;54933;51.908;7.730;2023-06-26T00:46:03;2.43;;;2.30;;
13708;SDS011;54933;51.908;7.730;2023-06-26T00:48:28;2.30;;;2.20;;
13708;SDS011;54933;51.908;7.730;2023-06-26T00:50:54;2.20;;;2.10;;
13708;SDS011;54933;51.908;7.730;2023-06-26T00:53:20;2.10;;;1.97;;
13708;SDS011;54933;51.908;7.730;2023-06-26T00:55:46;2.30;;;2.10;;
13708;SDS011;54933;51.908;7.730;2023-06-26T00:58:12;3.73;;;2.10;;
13708;SDS011;54933;51.908;7.730;2023-06-26T01:00:37;2.57;;;2.27;;
13708;SDS011;54933;51.908;7.730;2023-06-26T01:03:03;2.23;;;2.10;;
13708;SDS011;54933;51.908;7.730;2023-06-26T01:05:28;1.87;;;1.77;;
13708;SDS011;54933;51.908;7.730;2023-06-26T01:07:54;2.00;;;1.80;;
13708;SDS011;54933;51.908;7.730;2023-06-26T01:10:22;2.30;;;2.10;;
13708;SDS011;54933;51.908;7.730;2023-06-26T01:12:47;2.30;;;2.10;;
13708;SDS011;54933;51.908;7.730;2023-06-26T01:15:13;2.53;;;2.10;;
13708;SDS011;54933;51.908;7.730;2023-06-26T01:17:38;2.07;;;1.97;;
13708;SDS011;54933;51.908;7.730;2023-06-26T01:20:05;1.93;;;1.83;;
13708;SDS011;54933;51.908;7.730;2023-06-26T01:22:39;2.00;;;1.90;;
13708;SDS011;54933;51.908;7.730;2023-06-26T01:28:12;2.17;;;2.07;;
13708;SDS011;54933;51.908;7.730;2023-06-26T01:30:41;2.23;;;2.07;;
13708;SDS011;54933;51.908;7.730;2023-06-26T01:33:09;2.13;;;2.03;;
13708;SDS011;54933;51.908;7.730;2023-06-26T01:35:36;1.87;;;1.77;;
13708;SDS011;54933;51.908;7.730;2023-06-26T01:38:17;2.20;;;2.10;;
13708;SDS011;54933;51.908;7.730;2023-06-26T01:40:45;2.10;;;2.00;;
13708;SDS011;54933;51.908;7.730;2023-06-26T01:46:02;2.07;;;1.80;;
13708;SDS011;54933;51.908;7.730;2023-06-26T01:48:32;2.40;;;2.20;;
13708;SDS011;54933;51.908;7.730;2023-06-26T01:51:03;2.10;;;1.90;;
13708;SDS011;54933;51.908;7.730;2023-06-26T01:53:32;2.10;;;1.97;;
13708;SDS011;54933;51.908;7.730;2023-06-26T01:56:06;1.90;;;1.80;;
13708;SDS011;54933;51.908;7.730;2023-06-26T01:58:35;1.90;;;1.80;;
13708;SDS011;54933;51.908;7.730;2023-06-26T02:01:05;1.73;;;1.70;;
13708;SDS011;54933;51.908;7.730;2023-06-26T02:03:31;2.33;;;2.13;;
13708;SDS011;54933;51.908;7.730;2023-06-26T02:05:56;2.00;;;1.90;;
13708;SDS011;54933;51.908;7.730;2023-06-26T02:08:21;1.93;;;1.83;;
13708;SDS011;54933;51.908;7.730;2023-06-26T02:10:47;1.70;;;1.60;;
13708;SDS011;54933;51.908;7.730;2023-06-26T02:13:13;2.40;;;2.27;;
13708;SDS011;54933;51.908;7.730;2023-06-26T02:15:39;1.83;;;1.73;;
13708;SDS011;54933;51.908;7.730;2023-06-26T02:18:04;2.00;;;1.90;;
13708;SDS011;54933;51.908;7.730;2023-06-26T02:20:29;2.00;;;1.90;;
13708;SDS011;54933;51.908;7.730;2023-06-26T02:22:55;2.53;;;2.20;;
13708;SDS011;54933;51.908;7.730;2023-06-26T02:25:20;2.50;;;2.40;;
13708;SDS011;54933;51.908;7.730;2023-06-26T02:27:45;2.00;;;1.90;;
13708;SDS011;54933;51.908;7.730;2023-06-26T02:30:10;3.43;;;2.30;;
13708;SDS011;54933;51.908;7.730;2023-06-26T02:32:36;2.00;;;1.90;;
13708;SDS011;54933;51.908;7.730;2023-06-26T02:35:01;2.20;;;2.10;;
13708;SDS011;54933;51.908;7.730;2023-06-26T02:37:27;1.77;;;1.67;;
13708;SDS011;54933;51.908;7.730;2023-06-26T02:39:52;1.90;;;1.80;;
13708;SDS011;54933;51.908;7.730;2023-06-26T02:42:17;1.80;;;1.70;;
13708;SDS011;54933;51.908;7.730;2023-06-26T02:44:42;1.97;;;1.87;;
13708;SDS011;54933;51.908;7.730;2023-06-26T02:47:08;2.07;;;1.80;;
13708;SDS011;54933;51.908;7.730;2023-06-26T02:49:33;1.70;;;1.70;;
13708;SDS011;54933;51.908;7.730;2023-06-26T02:51:58;1.97;;;1.87;;
13708;SDS011;54933;51.908;7.730;2023-06-26T02:54:23;2.10;;;2.00;;
13708;SDS011;54933;51.908;7.730;2023-06-26T02:56:49;2.03;;;1.93;;
13708;SDS011;54933;51.908;7.730;2023-06-26T02:59:14;2.00;;;1.90;;
13708;SDS011;54933;51.908;7.730;2023-06-26T03:01:40;2.10;;;2.00;;
13708;SDS011;54933;51.908;7.730;2023-06-26T03:04:05;2.00;;;1.90;;
13708;SDS011;54933;51.908;7.730;2023-06-26T03:06:30;2.67;;;1.80;;
13708;SDS011;54933;51.908;7.730;2023-06-26T03:08:55;1.97;;;1.87;;
13708;SDS011;54933;51.908;7.730;2023-06-26T03:11:21;2.13;;;1.67;;
13708;SDS011;54933;51.908;7.730;2023-06-26T03:13:46;2.10;;;2.00;;
13708;SDS011;54933;51.908;7.730;2023-06-26T03:16:12;1.90;;;1.80;;
13708;SDS011;54933;51.908;7.730;2023-06-26T03:18:37;1.70;;;1.60;;
13708;SDS011;54933;51.908;7.730;2023-06-26T03:21:02;1.90;;;1.80;;
13708;SDS011;54933;51.908;7.730;2023-06-26T03:23:28;1.83;;;1.73;;
13708;SDS011;54933;51.908;7.730;2023-06-26T03:25:53;1.90;;;1.80;;
13708;SDS011;54933;51.908;7.730;2023-06-26T03:28:18;2.37;;;1.83;;
13708;SDS011;54933;51.908;7.730;2023-06-26T03:30:43;2.17;;;2.00;;
13708;SDS011;54933;51.908;7.730;2023-06-26T03:33:09;2.03;;;1.93;;
13708;SDS011;54933;51.908;7.730;2023-06-26T03:35:34;2.00;;;1.90;;
13708;SDS011;54933;51.908;7.730;2023-06-26T03:38:00;2.10;;;1.90;;
13708;SDS011;54933;51.908;7.730;2023-06-26T03:40:26;2.00;;;1.90;;
13708;SDS011;54933;51.908;7.730;2023-06-26T03:42:51;1.77;;;1.67;;
13708;SDS011;54933;51.908;7.730;2023-06-26T03:45:17;1.70;;;1.60;;
13708;SDS011;54933;51.908;7.730;2023-06-26T03:47:44;1.90;;;1.80;;
13708;SDS011;54933;51.908;7.730;2023-06-26T03:50:12;3.20;;;1.80;;
13708;SDS011;54933;51.908;7.730;2023-06-26T03:52:37;2.20;;;2.00;;
13708;SDS011;54933;51.908;7.730;2023-06-26T03:55:02;2.00;;;1.90;;
13708;SDS011;54933;51.908;7.730;2023-06-26T03:57:28;2.00;;;1.90;;
13708;SDS011;54933;51.908;7.730;2023-06-26T03:59:53;1.60;;;1.50;;
13708;SDS011;54933;51.908;7.730;2023-06-26T04:02:18;1.80;;;1.60;;
13708;SDS011;54933;51.908;7.730;2023-06-26T04:04:43;1.90;;;1.80;;
13708;SDS011;54933;51.908;7.730;2023-06-26T04:07:09;1.70;;;1.60;;
13708;SDS011;54933;51.908;7.730;2023-06-26T04:09:35;2.10;;;2.00;;
13708;SDS011;54933;51.908;7.730;2023-06-26T04:12:00;1.90;;;1.80;;
13708;SDS011;54933;51.908;7.730;2023-06-26T04:14:25;1.97;;;1.87;;
13708;SDS011;54933;51.908;7.730;2023-06-26T04:16:51;1.43;;;1.43;;
13708;SDS011;54933;51.908;7.730;2023-06-26T04:19:16;1.97;;;1.87;;
13708;SDS011;54933;51.908;7.730;2023-06-26T04:21:41;1.80;;;1.70;;
13708;SDS011;54933;51.908;7.730;2023-06-26T04:24:07;2.20;;;2.00;;
13708;SDS011;54933;51.908;7.730;2023-06-26T04:26:32;1.90;;;1.63;;
13708;SDS011;54933;51.908;7.730;2023-06-26T04:28:58;1.77;;;1.67;;
13708;SDS011;54933;51.908;7.730;2023-06-26T04:31:24;1.97;;;1.87;;
13708;SDS011;54933;51.908;7.730;2023-06-26T04:33:49;2.20;;;2.00;;
13708;SDS011;54933;51.908;7.730;2023-06-26T04:36:16;1.80;;;1.70;;
13708;SDS011;54933;51.908;7.730;2023-06-26T04:38:42;1.27;;;1.27;;
13708;SDS011;54933;51.908;7.730;2023-06-26T04:41:07;1.53;;;1.43;;
13708;SDS011;54933;51.908;7.730;2023-06-26T04:43:32;2.10;;;1.90;;
13708;SDS011;54933;51.908;7.730;2023-06-26T04:45:58;2.20;;;2.00;;
13708;SDS011;54933;51.908;7.730;2023-06-26T04:48:23;1.90;;;1.77;;
13708;SDS011;54933;51.908;7.730;2023-06-26T04:50:48;1.90;;;1.80;;
13708;SDS011;54933;51.908;7.730;2023-06-26T04:53:19;2.97;;;2.20;;
13708;SDS011;54933;51.908;7.730;2023-06-26T04:55:45;1.90;;;1.80;;
13708;SDS011;54933;51.908;7.730;2023-06-26T04:58:11;1.50;;;1.50;;
13708;SDS011;54933;51.908;7.730;2023-06-26T05:00:36;2.20;;;2.00;;
13708;SDS011;54933;51.908;7.730;2023-06-26T05:03:01;1.20;;;1.20;;
13708;SDS011;54933;51.908;7.730;2023-06-26T05:05:27;1.97;;;1.87;;
13708;SDS011;54933;51.908;7.730;2023-06-26T05:07:56;3.07;;;1.93;;
13708;SDS011;54933;51.908;7.730;2023-06-26T05:10:21;2.03;;;1.93;;
13708;SDS011;54933;51.908;7.730;2023-06-26T05:12:47;2.53;;;2.20;;
13708;SDS011;54933;51.908;7.730;2023-06-26T05:15:12;2.83;;;1.70;;
13708;SDS011;54933;51.908;7.730;2023-06-26T05:17:38;2.93;;;2.47;;
13708;SDS011;54933;51.908;7.730;2023-06-26T05:20:03;2.47;;;2.20;;
13708;SDS011;54933;51.908;7.730;2023-06-26T05:22:30;7.23;;;2.20;;
13708;SDS011;54933;51.908;7.730;2023-06-26T05:25:00;30.90;;;3.43;;
13708;SDS011;54933;51.908;7.730;2023-06-26T05:27:26;3.93;;;2.40;;
13708;SDS011;54933;51.908;7.730;2023-06-26T05:29:52;7.00;;;2.37;;
13708;SDS011;54933;51.908;7.730;2023-06-26T05:32:17;135.10;;;15.37;;
13708;SDS011;54933;51.908;7.730;2023-06-26T05:34:45;58.57;;;10.70;;
13708;SDS011;54933;51.908;7.730;2023-06-26T05:37:14;55.53;;;8.03;;
13708;SDS011;54933;51.908;7.730;2023-06-26T05:39:46;41.90;;;5.70;;
13708;SDS011;54933;51.908;7.730;2023-06-26T05:42:11;23.43;;;4.23;;
13708;SDS011;54933;51.908;7.730;2023-06-26T05:44:37;14.67;;;3.87;;
13708;SDS011;54933;51.908;7.730;2023-06-26T05:47:02;8.80;;;3.40;;
13708;SDS011;54933;51.908;7.730;2023-06-26T05:49:28;48.20;;;6.20;;
13708;SDS011;54933;51.908;7.730;2023-06-26T05:51:53;39.47;;;7.67;;
13708;SDS011;54933;51.908;7.730;2023-06-26T05:54:18;48.20;;;6.20;;
13708;SDS011;54933;51.908;7.730;2023-06-26T05:56:44;26.00;;;4.73;;
13708;SDS011;54933;51.908;7.730;2023-06-26T05:59:10;26.87;;;4.00;;
13708;SDS011;54933;51.908;7.730;2023-06-26T06:01:36;18.03;;;4.23;;
13708;SDS011;54933;51.908;7.730;2023-06-26T06:04:02;14.33;;;3.77;;
13708;SDS011;54933;51.908;7.730;2023-06-26T06:06:27;13.97;;;3.97;;
13708;SDS011;54933;51.908;7.730;2023-06-26T06:08:52;10.77;;;3.00;;
13708;SDS011;54933;51.908;7.730;2023-06-26T06:11:17;16.07;;;3.97;;
13708;SDS011;54933;51.908;7.730;2023-06-26T06:13:43;7.33;;;3.23;;
13708;SDS011;54933;51.908;7.730;2023-06-26T06:16:08;12.63;;;3.87;;
13708;SDS011;54933;51.908;7.730;2023-06-26T06:18:33;14.73;;;3.67;;
13708;SDS011;54933;51.908;7.730;2023-06-26T06:20:59;5.60;;;3.13;;
13708;SDS011;54933;51.908;7.730;2023-06-26T06:23:24;5.87;;;3.00;;
13708;SDS011;54933;51.908;7.730;2023-06-26T06:25:49;8.60;;;3.30;;
13708;SDS011;54933;51.908;7.730;2023-06-26T06:28:15;7.20;;;2.90;;
13708;SDS011;54933;51.908;7.730;2023-06-26T06:30:41;6.40;;;2.77;;
13708;SDS011;54933;51.908;7.730;2023-06-26T06:33:07;9.33;;;3.37;;
13708;SDS011;54933;51.908;7.730;2023-06-26T06:35:32;11.37;;;3.10;;
13708;SDS011;54933;51.908;7.730;2023-06-26T06:37:57;11.87;;;3.57;;
13708;SDS011;54933;51.908;7.730;2023-06-26T06:40:23;5.07;;;2.53;;
13708;SDS011;54933;51.908;7.730;2023-06-26T06:42:48;11.40;;;3.10;;
13708;SDS011;54933;51.908;7.730;2023-06-26T06:45:13;10.20;;;3.00;;
13708;SDS011;54933;51.908;7.730;2023-06-26T06:47:38;7.90;;;3.20;;
13708;SDS011;54933;51.908;7.730;2023-06-26T06:50:04;6.40;;;3.37;;
13708;SDS011;54933;51.908;7.730;2023-06-26T06:52:36;5.37;;;2.40;;
13708;SDS011;54933;51.908;7.730;2023-06-26T06:55:03;5.80;;;2.77;;
13708;SDS011;54933;51.908;7.730;2023-06-26T06:57:33;5.57;;;2.60;;
13708;SDS011;54933;51.908;7.730;2023-06-26T07:00:04;6.17;;;2.50;;
13708;SDS011;54933;51.908;7.730;2023-06-26T07:02:33;11.40;;;3.20;;
13708;SDS011;54933;51.908;7.730;2023-06-26T07:04:58;5.60;;;2.57;;
13708;SDS011;54933;51.908;7.730;2023-06-26T07:07:24;9.37;;;2.63;;
13708;SDS011;54933;51.908;7.730;2023-06-26T07:09:55;7.50;;;3.10;;
13708;SDS011;54933;51.908;7.730;2023-06-26T07:12:21;9.50;;;2.57;;
13708;SDS011;54933;51.908;7.730;2023-06-26T07:14:46;4.53;;;2.37;;
13708;SDS011;54933;51.908;7.730;2023-06-26T07:17:11;8.47;;;2.73;;
13708;SDS011;54933;51.908;7.730;2023-06-26T07:19:36;3.73;;;2.67;;
13708;SDS011;54933;51.908;7.730;2023-06-26T07:22:02;4.80;;;2.70;;
13708;SDS011;54933;51.908;7.730;2023-06-26T07:24:27;5.13;;;2.67;;
13708;SDS011;54933;51.908;7.730;2023-06-26T07:26:52;6.97;;;2.27;;
13708;SDS011;54933;51.908;7.730;2023-06-26T07:29:17;6.00;;;2.20;;
13708;SDS011;54933;51.908;7.730;2023-06-26T07:31:43;3.90;;;2.20;;
13708;SDS011;54933;51.908;7.730;2023-06-26T07:34:10;2.50;;;1.73;;
13708;SDS011;54933;51.908;7.730;2023-06-26T07:36:35;6.60;;;2.53;;
13708;SDS011;54933;51.908;7.730;2023-06-26T07:39:00;3.63;;;1.97;;
13708;SDS011;54933;51.908;7.730;2023-06-26T07:41:25;3.87;;;2.50;;
13708;SDS011;54933;51.908;7.730;2023-06-26T07:43:51;3.53;;;2.03;;
13708;SDS011;54933;51.908;7.730;2023-06-26T07:46:16;3.17;;;2.10;;
13708;SDS011;54933;51.908;7.730;2023-06-26T07:48:41;5.03;;;2.30;;
13708;SDS011;54933;51.908;7.730;2023-06-26T07:51:06;3.60;;;2.47;;
13708;SDS011;54933;51.908;7.730;2023-06-26T07:53:32;7.33;;;2.90;;
13708;SDS011;54933;51.908;7.730;2023-06-26T07:55:57;2.60;;;2.30;;
13708;SDS011;54933;51.908;7.730;2023-06-26T07:58:22;4.27;;;2.80;;
13708;SDS011;54933;51.908;7.730;2023-06-26T08:00:47;4.10;;;2.93;;
13708;SDS011;54933;51.908;7.730;2023-06-26T08:03:13;3.53;;;2.87;;
13708;SDS011;54933;51.908;7.730;2023-06-26T08:05:38;4.20;;;2.83;;
13708;SDS011;54933;51.908;7.730;2023-06-26T08:08:03;4.97;;;2.63;;
13708;SDS011;54933;51.908;7.730;2023-06-26T08:10:28;5.83;;;2.80;;
13708;SDS011;54933;51.908;7.730;2023-06-26T08:12:55;5.60;;;2.57;;
13708;SDS011;54933;51.908;7.730;2023-06-26T08:15:21;4.37;;;2.90;;
13708;SDS011;54933;51.908;7.730;2023-06-26T08:17:46;4.20;;;2.30;;
13708;SDS011;54933;51.908;7.730;2023-06-26T08:20:12;4.67;;;2.80;;
13708;SDS011;54933;51.908;7.730;2023-06-26T08:22:37;4.37;;;2.43;;
13708;SDS011;54933;51.908;7.730;2023-06-26T08:25:02;4.63;;;2.67;;
13708;SDS011;54933;51.908;7.730;2023-06-26T08:27:29;3.23;;;2.30;;
13708;SDS011;54933;51.908;7.730;2023-06-26T08:29:54;6.93;;;2.43;;
13708;SDS011;54933;51.908;7.730;2023-06-26T08:32:19;5.17;;;2.23;;
13708;SDS011;54933;51.908;7.730;2023-06-26T08:34:45;3.23;;;2.23;;
13708;SDS011;54933;51.908;7.730;2023-06-26T08:37:10;4.33;;;2.70;;
13708;SDS011;54933;51.908;7.730;2023-06-26T08:39:35;3.20;;;2.10;;
13708;SDS011;54933;51.908;7.730;2023-06-26T08:42:00;3.43;;;2.20;;
13708;SDS011;54933;51.908;7.730;2023-06-26T08:44:26;4.67;;;2.30;;
13708;SDS011;54933;51.908;7.730;2023-06-26T08:46:51;4.20;;;2.20;;
13708;SDS011;54933;51.908;7.730;2023-06-26T08:52:02;4.60;;;2.53;;
13708;SDS011;54933;51.908;7.730;2023-06-26T08:54:40;2.20;;;1.90;;
13708;SDS011;54933;51.908;7.730;2023-06-26T08:57:10;4.93;;;2.53;;
13708;SDS011;54933;51.908;7.730;2023-06-26T08:59:36;2.37;;;1.97;;
13708;SDS011;54933;51.908;7.730;2023-06-26T09:02:01;3.97;;;2.13;;
13708;SDS011;54933;51.908;7.730;2023-06-26T09:04:27;3.83;;;2.37;;
13708;SDS011;54933;51.908;7.730;2023-06-26T09:06:53;1.93;;;1.73;;
13708;SDS011;54933;51.908;7.730;2023-06-26T09:09:18;2.47;;;2.27;;
13708;SDS011;54933;51.908;7.730;2023-06-26T09:11:43;4.60;;;2.60;;
13708;SDS011;54933;51.908;7.730;2023-06-26T09:14:09;2.97;;;1.90;;
13708;SDS011;54933;51.908;7.730;2023-06-26T09:16:41;3.40;;;1.90;;
13708;SDS011;54933;51.908;7.730;2023-06-26T09:19:10;4.60;;;2.27;;
13708;SDS011;54933;51.908;7.730;2023-06-26T09:21:37;1.50;;;1.43;;
13708;SDS011;54933;51.908;7.730;2023-06-26T09:24:07;2.60;;;1.77;;
13708;SDS011;54933;51.908;7.730;2023-06-26T09:26:35;2.97;;;1.90;;
13708;SDS011;54933;51.908;7.730;2023-06-26T09:29:01;2.47;;;1.73;;
13708;SDS011;54933;51.908;7.730;2023-06-26T09:31:27;2.43;;;1.97;;
13708;SDS011;54933;51.908;7.730;2023-06-26T09:33:55;2.63;;;1.60;;
13708;SDS011;54933;51.908;7.730;2023-06-26T09:36:25;2.47;;;1.90;;
13708;SDS011;54933;51.908;7.730;2023-06-26T09:38:53;3.70;;;2.43;;
13708;SDS011;54933;51.908;7.730;2023-06-26T09:41:18;3.30;;;1.70;;
13708;SDS011;54933;51.908;7.730;2023-06-26T09:43:47;2.50;;;1.90;;
13708;SDS011;54933;51.908;7.730;2023-06-26T09:46:17;2.77;;;2.10;;
13708;SDS011;54933;51.908;7.730;2023-06-26T09:48:49;2.83;;;1.90;;
13708;SDS011;54933;51.908;7.730;2023-06-26T09:51:16;2.40;;;2.23;;
13708;SDS011;54933;51.908;7.730;2023-06-26T09:53:44;3.73;;;2.30;;
13708;SDS011;54933;51.908;7.730;2023-06-26T09:56:16;2.13;;;1.90;;
13708;SDS011;54933;51.908;7.730;2023-06-26T09:58:42;1.97;;;1.57;;
13708;SDS011;54933;51.908;7.730;2023-06-26T10:01:08;3.30;;;2.07;;
13708;SDS011;54933;51.908;7.730;2023-06-26T10:03:34;2.47;;;1.63;;
13708;SDS011;54933;51.908;7.730;2023-06-26T10:06:00;3.47;;;2.00;;
13708;SDS011;54933;51.908;7.730;2023-06-26T10:08:27;2.10;;;1.80;;
13708;SDS011;54933;51.908;7.730;2023-06-26T10:10:53;2.47;;;1.73;;
13708;SDS011;54933;51.908;7.730;2023-06-26T10:13:22;1.90;;;1.70;;
13708;SDS011;54933;51.908;7.730;2023-06-26T10:15:50;2.40;;;2.13;;
13708;SDS011;54933;51.908;7.730;2023-06-26T10:18:16;5.23;;;2.00;;
13708;SDS011;54933;51.908;7.730;2023-06-26T10:20:44;1.70;;;1.60;;
13708;SDS011;54933;51.908;7.730;2023-06-26T10:23:13;1.90;;;1.80;;
13708;SDS011;54933;51.908;7.730;2023-06-26T10:25:40;1.40;;;1.37;;
13708;SDS011;54933;51.908;7.730;2023-06-26T10:28:07;1.50;;;1.40;;
13708;SDS011;54933;51.908;7.730;2023-06-26T10:30:34;3.07;;;1.70;;
13708;SDS011;54933;51.908;7.730;2023-06-26T10:33:02;2.00;;;1.80;;
13708;SDS011;54933;51.908;7.730;2023-06-26T10:35:28;2.00;;;1.70;;
13708;SDS011;54933;51.908;7.730;2023-06-26T10:37:59;1.97;;;1.73;;
13708;SDS011;54933;51.908;7.730;2023-06-26T10:40:39;3.30;;;1.40;;
13708;SDS011;54933;51.908;7.730;2023-06-26T10:43:10;1.77;;;1.30;;
13708;SDS011;54933;51.908;7.730;2023-06-26T10:45:37;1.60;;;1.50;;
13708;SDS011;54933;51.908;7.730;2023-06-26T10:48:07;1.97;;;1.80;;
13708;SDS011;54933;51.908;7.730;2023-06-26T10:50:32;2.30;;;2.00;;
13708;SDS011;54933;51.908;7.730;2023-06-26T10:53:15;2.23;;;2.00;;
13708;SDS011;54933;51.908;7.730;2023-06-26T10:56:02;1.53;;;1.43;;
13708;SDS011;54933;51.908;7.730;2023-06-26T11:03:36;3.20;;;1.80;;
13708;SDS011;54933;51.908;7.730;2023-06-26T11:06:08;1.67;;;1.57;;
13708;SDS011;54933;51.908;7.730;2023-06-26T11:08:51;2.23;;;1.97;;
13708;SDS011;54933;51.908;7.730;2023-06-26T11:11:18;1.87;;;1.77;;
13708;SDS011;54933;51.908;7.730;2023-06-26T11:13:45;1.50;;;1.40;;
13708;SDS011;54933;51.908;7.730;2023-06-26T11:16:12;1.87;;;1.63;;
13708;SDS011;54933;51.908;7.730;2023-06-26T11:18:39;1.67;;;1.57;;
13708;SDS011;54933;51.908;7.730;2023-06-26T11:21:08;1.60;;;1.50;;
13708;SDS011;54933;51.908;7.730;2023-06-26T11:23:39;2.93;;;1.50;;
13708;SDS011;54933;51.908;7.730;2023-06-26T11:26:39;1.57;;;1.30;;
13708;SDS011;54933;51.908;7.730;2023-06-26T11:29:02;1.30;;;1.20;;
13708;SDS011;54933;51.908;7.730;2023-06-26T11:31:31;1.70;;;1.60;;
13708;SDS011;54933;51.908;7.730;2023-06-26T11:34:12;1.80;;;1.70;;
13708;SDS011;54933;51.908;7.730;2023-06-26T11:36:41;2.10;;;1.80;;
13708;SDS011;54933;51.908;7.730;2023-06-26T11:39:07;1.20;;;1.20;;
13708;SDS011;54933;51.908;7.730;2023-06-26T11:41:34;1.57;;;1.47;;
13708;SDS011;54933;51.908;7.730;2023-06-26T11:44:02;6.00;;;1.50;;
13708;SDS011;54933;51.908;7.730;2023-06-26T11:46:32;1.60;;;1.50;;
13708;SDS011;54933;51.908;7.730;2023-06-26T11:48:59;1.60;;;1.50;;
13708;SDS011;54933;51.908;7.730;2023-06-26T11:51:26;1.20;;;1.20;;
13708;SDS011;54933;51.908;7.730;2023-06-26T11:53:52;1.63;;;1.53;;
13708;SDS011;54933;51.908;7.730;2023-06-26T11:56:18;1.33;;;1.23;;
13708;SDS011;54933;51.908;7.730;2023-06-26T11:59:03;1.50;;;1.40;;
13708;SDS011;54933;51.908;7.730;2023-06-26T12:01:36;1.60;;;1.50;;
13708;SDS011;54933;51.908;7.730;2023-06-26T12:04:04;3.20;;;1.60;;
13708;SDS011;54933;51.908;7.730;2023-06-26T12:06:31;1.30;;;1.20;;
13708;SDS011;54933;51.908;7.730;2023-06-26T12:08:59;2.20;;;1.30;;
13708;SDS011;54933;51.908;7.730;2023-06-26T12:11:26;1.97;;;1.47;;
13708;SDS011;54933;51.908;7.730;2023-06-26T12:13:53;1.30;;;1.20;;
13708;SDS011;54933;51.908;7.730;2023-06-26T12:16:19;1.40;;;1.30;;
13708;SDS011;54933;51.908;7.730;2023-06-26T12:18:45;1.57;;;1.40;;
13708;SDS011;54933;51.908;7.730;2023-06-26T12:21:27;1.70;;;1.60;;
13708;SDS011;54933;51.908;7.730;2023-06-26T12:24:09;1.73;;;1.63;;
13708;SDS011;54933;51.908;7.730;2023-06-26T12:26:38;1.23;;;1.13;;
13708;SDS011;54933;51.908;7.730;2023-06-26T12:29:06;1.20;;;1.20;;
13708;SDS011;54933;51.908;7.730;2023-06-26T12:31:34;1.27;;;1.17;;
13708;SDS011;54933;51.908;7.730;2023-06-26T12:34:01;1.67;;;1.57;;
13708;SDS011;54933;51.908;7.730;2023-06-26T12:36:26;2.50;;;1.47;;
13708;SDS011;54933;51.908;7.730;2023-06-26T12:38:52;1.87;;;1.70;;
13708;SDS011;54933;51.908;7.730;2023-06-26T12:41:19;1.20;;;1.20;;
13708;SDS011;54933;51.908;7.730;2023-06-26T12:43:45;1.60;;;1.50;;
13708;SDS011;54933;51.908;7.730;2023-06-26T12:46:11;1.07;;;1.07;;
13708;SDS011;54933;51.908;7.730;2023-06-26T12:48:39;2.40;;;1.40;;
13708;SDS011;54933;51.908;7.730;2023-06-26T12:51:15;1.40;;;1.30;;
13708;SDS011;54933;51.908;7.730;2023-06-26T12:53:42;1.73;;;1.27;;
13708;SDS011;54933;51.908;7.730;2023-06-26T12:56:08;1.60;;;1.50;;
13708;SDS011;54933;51.908;7.730;2023-06-26T12:58:35;1.40;;;1.30;;
13708;SDS011;54933;51.908;7.730;2023-06-26T13:01:02;1.33;;;1.23;;
13708;SDS011;54933;51.908;7.730;2023-06-26T13:03:29;1.00;;;0.87;;
13708;SDS011;54933;51.908;7.730;2023-06-26T13:05:54;1.70;;;1.60;;
13708;SDS011;54933;51.908;7.730;2023-06-26T13:08:19;1.60;;;1.50;;
13708;SDS011;54933;51.908;7.730;2023-06-26T13:10:44;1.57;;;1.47;;
13708;SDS011;54933;51.908;7.730;2023-06-26T13:13:10;1.23;;;1.13;;
13708;SDS011;54933;51.908;7.730;2023-06-26T13:15:36;1.50;;;1.10;;
13708;SDS011;54933;51.908;7.730;2023-06-26T13:18:02;1.37;;;1.27;;
13708;SDS011;54933;51.908;7.730;2023-06-26T13:20:27;1.03;;;1.03;;
13708;SDS011;54933;51.908;7.730;2023-06-26T13:22:53;1.30;;;1.20;;
13708;SDS011;54933;51.908;7.730;2023-06-26T13:25:19;1.10;;;1.10;;
13708;SDS011;54933;51.908;7.730;2023-06-26T13:27:44;1.03;;;1.03;;
13708;SDS011;54933;51.908;7.730;2023-06-26T13:30:10;1.60;;;1.50;;
13708;SDS011;54933;51.908;7.730;2023-06-26T13:32:36;1.70;;;1.60;;
13708;SDS011;54933;51.908;7.730;2023-06-26T13:35:01;1.10;;;1.10;;
13708;SDS011;54933;51.908;7.730;2023-06-26T13:37:26;1.13;;;1.13;;
13708;SDS011;54933;51.908;7.730;2023-06-26T13:39:51;1.53;;;1.47;;
13708;SDS011;54933;51.908;7.730;2023-06-26T13:42:17;1.00;;;1.00;;
13708;SDS011;54933;51.908;7.730;2023-06-26T13:44:42;2.03;;;1.27;;
13708;SDS011;54933;51.908;7.730;2023-06-26T13:47:08;1.27;;;1.27;;
13708;SDS011;54933;51.908;7.730;2023-06-26T13:49:34;1.20;;;1.10;;
13708;SDS011;54933;51.908;7.730;2023-06-26T13:52:00;1.63;;;1.53;;
13708;SDS011;54933;51.908;7.730;2023-06-26T13:54:25;7.57;;;2.03;;
13708;SDS011;54933;51.908;7.730;2023-06-26T13:56:50;28.63;;;2.83;;
13708;SDS011;54933;51.908;7.730;2023-06-26T13:59:15;13.50;;;1.87;;
13708;SDS011;54933;51.908;7.730;2023-06-26T14:01:41;11.17;;;2.13;;
13708;SDS011;54933;51.908;7.730;2023-06-26T14:04:08;10.43;;;1.57;;
13708;SDS011;54933;51.908;7.730;2023-06-26T14:06:34;7.20;;;2.00;;
13708;SDS011;54933;51.908;7.730;2023-06-26T14:08:59;8.60;;;1.83;;
13708;SDS011;54933;51.908;7.730;2023-06-26T14:11:25;5.47;;;1.60;;
13708;SDS011;54933;51.908;7.730;2023-06-26T14:13:50;6.30;;;1.40;;
13708;SDS011;54933;51.908;7.730;2023-06-26T14:16:16;4.83;;;1.47;;
13708;SDS011;54933;51.908;7.730;2023-06-26T14:18:43;6.87;;;1.20;;
13708;SDS011;54933;51.908;7.730;2023-06-26T14:21:08;2.00;;;1.20;;
13708;SDS011;54933;51.908;7.730;2023-06-26T14:23:34;2.40;;;1.23;;
13708;SDS011;54933;51.908;7.730;2023-06-26T14:25:59;1.63;;;1.53;;
13708;SDS011;54933;51.908;7.730;2023-06-26T14:28:25;2.70;;;1.20;;
13708;SDS011;54933;51.908;7.730;2023-06-26T14:30:50;4.07;;;1.40;;
13708;SDS011;54933;51.908;7.730;2023-06-26T14:33:16;1.33;;;1.23;;
13708;SDS011;54933;51.908;7.730;2023-06-26T14:35:41;1.40;;;1.10;;
13708;SDS011;54933;51.908;7.730;2023-06-26T14:38:06;2.97;;;1.30;;
13708;SDS011;54933;51.908;7.730;2023-06-26T14:40:31;2.07;;;1.30;;
13708;SDS011;54933;51.908;7.730;2023-06-26T14:42:57;2.40;;;1.07;;
13708;SDS011;54933;51.908;7.730;2023-06-26T14:45:22;74.47;;;7.63;;
13708;SDS011;54933;51.908;7.730;2023-06-26T14:47:47;54.40;;;5.73;;
13708;SDS011;54933;51.908;7.730;2023-06-26T14:50:12;52.17;;;5.50;;
13708;SDS011;54933;51.908;7.730;2023-06-26T14:52:38;26.20;;;3.27;;
13708;SDS011;54933;51.908;7.730;2023-06-26T14:55:03;29.43;;;3.47;;
13708;SDS011;54933;51.908;7.730;2023-06-26T14:57:29;32.70;;;3.13;;